sensor_id;sensor_type;location;lat;lon;timestamp;temperature;humidity
16038;DHT22;8123;50.906;6.172;2022-12-07T00:01:35;5.30;99.90
16038;DHT22;8123;50.906;6.172;2022-12-07T00:04:04;5.30;99.90
16038;DHT22;8123;50.906;6.172;2022-12-07T00:06:35;5.30;99.90
16038;DHT22;8123;50.906;6.172;2022-12-07T00:09:01;5.60;99.90
16038;DHT22;8123;50.906;6.172;2022-12-07T00:11:27;5.30;99.90
16038;DHT22;8123;50.906;6.172;2022-12-07T00:13:55;5.50;99.90
16038;DHT22;8123;50.906;6.172;2022-12-07T00:16:22;5.40;99.90
16038;DHT22;8123;50.906;6.172;2022-12-07T00:18:48;5.50;99.90
16038;DHT22;8123;50.906;6.172;2022-12-07T00:21:18;5.70;99.90
16038;DHT22;8123;50.906;6.172;2022-12-07T00:23:45;5.40;99.90
16038;DHT22;8123;50.906;6.172;2022-12-07T00:26:25;5.80;99.90
16038;DHT22;8123;50.906;6.172;2022-12-07T00:28:53;5.40;99.90
16038;DHT22;8123;50.906;6.172;2022-12-07T00:31:21;5.50;99.90
16038;DHT22;8123;50.906;6.172;2022-12-07T00:33:47;5.40;99.90
16038;DHT22;8123;50.906;6.172;2022-12-07T00:36:16;5.40;99.90
16038;DHT22;8123;50.906;6.172;2022-12-07T00:38:42;5.60;99.90
16038;DHT22;8123;50.906;6.172;2022-12-07T00:41:20;5.30;99.90
16038;DHT22;8123;50.906;6.172;2022-12-07T00:43:47;5.50;99.90
16038;DHT22;8123;50.906;6.172;2022-12-07T00:46:14;5.60;99.90
16038;DHT22;8123;50.906;6.172;2022-12-07T00:48:40;5.30;99.90
16038;DHT22;8123;50.906;6.172;2022-12-07T00:51:06;5.60;99.90
16038;DHT22;8123;50.906;6.172;2022-12-07T00:53:36;5.50;99.90
16038;DHT22;8123;50.906;6.172;2022-12-07T00:56:13;5.40;99.90
16038;DHT22;8123;50.906;6.172;2022-12-07T00:58:39;5.30;99.90
16038;DHT22;8123;50.906;6.172;2022-12-07T01:01:07;5.40;99.90
16038;DHT22;8123;50.906;6.172;2022-12-07T01:03:33;5.40;99.90
16038;DHT22;8123;50.906;6.172;2022-12-07T01:06:00;5.30;99.90
16038;DHT22;8123;50.906;6.172;2022-12-07T01:08:26;5.40;99.90
16038;DHT22;8123;50.906;6.172;2022-12-07T01:11:04;5.40;99.90
16038;DHT22;8123;50.906;6.172;2022-12-07T01:13:30;5.40;99.90
16038;DHT22;8123;50.906;6.172;2022-12-07T01:15:58;5.70;99.90
16038;DHT22;8123;50.906;6.172;2022-12-07T01:18:28;5.70;99.90
16038;DHT22;8123;50.906;6.172;2022-12-07T01:21:10;5.40;99.90
16038;DHT22;8123;50.906;6.172;2022-12-07T01:23:36;5.40;99.90
16038;DHT22;8123;50.906;6.172;2022-12-07T01:26:05;5.40;99.90
16038;DHT22;8123;50.906;6.172;2022-12-07T01:28:31;5.40;99.90
16038;DHT22;8123;50.906;6.172;2022-12-07T01:31:05;5.40;99.90
16038;DHT22;8123;50.906;6.172;2022-12-07T01:33:34;5.40;99.90
16038;DHT22;8123;50.906;6.172;2022-12-07T01:36:04;5.70;99.90
16038;DHT22;8123;50.906;6.172;2022-12-07T01:38:31;5.40;99.90
16038;DHT22;8123;50.906;6.172;2022-12-07T01:40:57;5.40;99.90
16038;DHT22;8123;50.906;6.172;2022-12-07T01:43:24;5.40;99.90
16038;DHT22;8123;50.906;6.172;2022-12-07T01:45:51;5.60;99.90
16038;DHT22;8123;50.906;6.172;2022-12-07T01:48:19;5.40;99.90
16038;DHT22;8123;50.906;6.172;2022-12-07T01:50:48;5.70;99.90
16038;DHT22;8123;50.906;6.172;2022-12-07T01:53:14;5.40;99.90
16038;DHT22;8123;50.906;6.172;2022-12-07T01:55:42;5.40;99.90
16038;DHT22;8123;50.906;6.172;2022-12-07T01:58:10;5.80;99.90
16038;DHT22;8123;50.906;6.172;2022-12-07T02:00:37;5.40;99.90
16038;DHT22;8123;50.906;6.172;2022-12-07T02:03:18;5.40;99.90
16038;DHT22;8123;50.906;6.172;2022-12-07T02:05:45;5.40;99.90
16038;DHT22;8123;50.906;6.172;2022-12-07T02:08:12;5.40;99.90
16038;DHT22;8123;50.906;6.172;2022-12-07T02:10:39;5.40;99.90
16038;DHT22;8123;50.906;6.172;2022-12-07T02:21:34;5.30;99.90
16038;DHT22;8123;50.906;6.172;2022-12-07T02:32:24;5.30;99.90
16038;DHT22;8123;50.906;6.172;2022-12-07T02:35:02;5.20;99.90
16038;DHT22;8123;50.906;6.172;2022-12-07T02:42:38;5.20;99.90
16038;DHT22;8123;50.906;6.172;2022-12-07T02:45:07;5.60;99.90
16038;DHT22;8123;50.906;6.172;2022-12-07T02:47:34;5.20;99.90
16038;DHT22;8123;50.906;6.172;2022-12-07T02:50:06;5.50;99.90
16038;DHT22;8123;50.906;6.172;2022-12-07T02:52:32;5.20;99.90
16038;DHT22;8123;50.906;6.172;2022-12-07T02:54:57;5.60;99.90
16038;DHT22;8123;50.906;6.172;2022-12-07T02:57:45;5.10;99.90
16038;DHT22;8123;50.906;6.172;2022-12-07T03:00:18;5.10;99.90
16038;DHT22;8123;50.906;6.172;2022-12-07T03:03:09;5.10;99.90
16038;DHT22;8123;50.906;6.172;2022-12-07T03:06:48;5.10;99.90
16038;DHT22;8123;50.906;6.172;2022-12-07T03:08:54;5.10;99.90
16038;DHT22;8123;50.906;6.172;2022-12-07T03:11:32;5.10;99.90
16038;DHT22;8123;50.906;6.172;2022-12-07T03:14:15;5.20;99.90
16038;DHT22;8123;50.906;6.172;2022-12-07T03:16:48;5.10;99.90
16038;DHT22;8123;50.906;6.172;2022-12-07T03:19:18;5.10;99.90
16038;DHT22;8123;50.906;6.172;2022-12-07T03:21:51;5.50;99.90
16038;DHT22;8123;50.906;6.172;2022-12-07T03:24:22;5.30;99.90
16038;DHT22;8123;50.906;6.172;2022-12-07T03:27:05;5.50;99.90
16038;DHT22;8123;50.906;6.172;2022-12-07T03:29:36;5.20;99.90
16038;DHT22;8123;50.906;6.172;2022-12-07T03:32:11;5.20;99.90
16038;DHT22;8123;50.906;6.172;2022-12-07T03:37:29;5.20;99.90
16038;DHT22;8123;50.906;6.172;2022-12-07T03:39:58;5.60;99.90
16038;DHT22;8123;50.906;6.172;2022-12-07T03:42:26;5.50;99.90
16038;DHT22;8123;50.906;6.172;2022-12-07T03:44:52;5.60;99.90
16038;DHT22;8123;50.906;6.172;2022-12-07T03:47:31;5.40;99.90
16038;DHT22;8123;50.906;6.172;2022-12-07T03:50:03;5.20;99.90
16038;DHT22;8123;50.906;6.172;2022-12-07T03:52:40;5.40;99.90
16038;DHT22;8123;50.906;6.172;2022-12-07T03:55:09;5.10;99.90
16038;DHT22;8123;50.906;6.172;2022-12-07T03:57:38;5.50;99.90
16038;DHT22;8123;50.906;6.172;2022-12-07T04:00:07;5.20;99.90
16038;DHT22;8123;50.906;6.172;2022-12-07T04:02:33;5.20;99.90
16038;DHT22;8123;50.906;6.172;2022-12-07T04:04:59;5.20;99.90
16038;DHT22;8123;50.906;6.172;2022-12-07T04:07:25;5.20;99.90
16038;DHT22;8123;50.906;6.172;2022-12-07T04:09:50;5.20;99.90
16038;DHT22;8123;50.906;6.172;2022-12-07T04:12:16;5.40;99.90
16038;DHT22;8123;50.906;6.172;2022-12-07T04:14:42;5.20;99.90
16038;DHT22;8123;50.906;6.172;2022-12-07T04:17:08;5.20;99.90
16038;DHT22;8123;50.906;6.172;2022-12-07T04:19:34;5.20;99.90
16038;DHT22;8123;50.906;6.172;2022-12-07T04:22:01;5.20;99.90
16038;DHT22;8123;50.906;6.172;2022-12-07T04:24:27;5.20;99.90
16038;DHT22;8123;50.906;6.172;2022-12-07T04:26:53;5.20;99.90
16038;DHT22;8123;50.906;6.172;2022-12-07T04:29:19;5.50;99.90
16038;DHT22;8123;50.906;6.172;2022-12-07T04:31:45;5.40;99.90
16038;DHT22;8123;50.906;6.172;2022-12-07T04:34:11;5.60;99.90
16038;DHT22;8123;50.906;6.172;2022-12-07T04:36:38;5.30;99.90
16038;DHT22;8123;50.906;6.172;2022-12-07T04:39:05;5.40;99.90
16038;DHT22;8123;50.906;6.172;2022-12-07T04:41:31;5.90;99.90
16038;DHT22;8123;50.906;6.172;2022-12-07T04:44:03;5.60;99.90
16038;DHT22;8123;50.906;6.172;2022-12-07T04:46:30;5.20;99.90
16038;DHT22;8123;50.906;6.172;2022-12-07T04:48:56;5.20;99.90
16038;DHT22;8123;50.906;6.172;2022-12-07T04:51:24;5.20;99.90
16038;DHT22;8123;50.906;6.172;2022-12-07T04:53:50;5.10;99.90
16038;DHT22;8123;50.906;6.172;2022-12-07T04:56:16;5.40;99.90
16038;DHT22;8123;50.906;6.172;2022-12-07T04:58:43;5.00;99.90
16038;DHT22;8123;50.906;6.172;2022-12-07T05:01:09;5.00;99.90
16038;DHT22;8123;50.906;6.172;2022-12-07T05:03:36;5.30;99.90
16038;DHT22;8123;50.906;6.172;2022-12-07T05:06:03;5.40;99.90
16038;DHT22;8123;50.906;6.172;2022-12-07T05:08:28;5.00;99.90
16038;DHT22;8123;50.906;6.172;2022-12-07T05:10:54;5.10;99.90
16038;DHT22;8123;50.906;6.172;2022-12-07T05:13:20;5.00;99.90
16038;DHT22;8123;50.906;6.172;2022-12-07T05:15:47;5.30;99.90
16038;DHT22;8123;50.906;6.172;2022-12-07T05:18:12;5.80;99.90
16038;DHT22;8123;50.906;6.172;2022-12-07T05:20:39;5.10;99.90
16038;DHT22;8123;50.906;6.172;2022-12-07T05:23:04;5.10;99.90
16038;DHT22;8123;50.906;6.172;2022-12-07T05:25:30;5.00;99.90
16038;DHT22;8123;50.906;6.172;2022-12-07T05:27:56;5.20;99.90
16038;DHT22;8123;50.906;6.172;2022-12-07T05:30:23;5.10;99.90
16038;DHT22;8123;50.906;6.172;2022-12-07T05:32:49;5.10;99.90
16038;DHT22;8123;50.906;6.172;2022-12-07T05:35:16;5.10;99.90
16038;DHT22;8123;50.906;6.172;2022-12-07T05:37:41;5.10;99.90
16038;DHT22;8123;50.906;6.172;2022-12-07T05:40:08;5.50;99.90
16038;DHT22;8123;50.906;6.172;2022-12-07T05:42:34;5.10;99.90
16038;DHT22;8123;50.906;6.172;2022-12-07T05:44:59;5.10;99.90
16038;DHT22;8123;50.906;6.172;2022-12-07T05:47:25;5.50;99.90
16038;DHT22;8123;50.906;6.172;2022-12-07T05:49:51;5.40;99.90
16038;DHT22;8123;50.906;6.172;2022-12-07T05:52:16;5.20;99.90
16038;DHT22;8123;50.906;6.172;2022-12-07T05:54:42;5.10;99.90
16038;DHT22;8123;50.906;6.172;2022-12-07T05:57:07;5.10;99.90
16038;DHT22;8123;50.906;6.172;2022-12-07T05:59:33;5.40;99.90
16038;DHT22;8123;50.906;6.172;2022-12-07T06:02:00;5.10;99.90
16038;DHT22;8123;50.906;6.172;2022-12-07T06:04:29;5.50;99.90
16038;DHT22;8123;50.906;6.172;2022-12-07T06:06:55;5.10;99.90
16038;DHT22;8123;50.906;6.172;2022-12-07T06:09:22;5.10;99.90
16038;DHT22;8123;50.906;6.172;2022-12-07T06:11:48;5.20;99.90
16038;DHT22;8123;50.906;6.172;2022-12-07T06:14:33;5.10;99.90
16038;DHT22;8123;50.906;6.172;2022-12-07T06:16:59;5.30;99.90
16038;DHT22;8123;50.906;6.172;2022-12-07T06:19:24;5.10;99.90
16038;DHT22;8123;50.906;6.172;2022-12-07T06:21:50;5.30;99.90
16038;DHT22;8123;50.906;6.172;2022-12-07T06:24:17;5.10;99.90
16038;DHT22;8123;50.906;6.172;2022-12-07T06:26:44;5.10;99.90
16038;DHT22;8123;50.906;6.172;2022-12-07T06:29:11;5.10;99.90
16038;DHT22;8123;50.906;6.172;2022-12-07T06:31:37;5.50;99.90
16038;DHT22;8123;50.906;6.172;2022-12-07T06:34:05;5.30;99.90
16038;DHT22;8123;50.906;6.172;2022-12-07T06:36:31;5.10;99.90
16038;DHT22;8123;50.906;6.172;2022-12-07T06:38:57;5.10;99.90
16038;DHT22;8123;50.906;6.172;2022-12-07T06:41:23;5.10;99.90
16038;DHT22;8123;50.906;6.172;2022-12-07T06:43:49;5.00;99.90
16038;DHT22;8123;50.906;6.172;2022-12-07T06:46:16;5.30;99.90
16038;DHT22;8123;50.906;6.172;2022-12-07T06:48:42;5.00;99.90
16038;DHT22;8123;50.906;6.172;2022-12-07T06:51:08;5.10;99.90
16038;DHT22;8123;50.906;6.172;2022-12-07T06:53:34;5.00;99.90
16038;DHT22;8123;50.906;6.172;2022-12-07T06:56:00;5.20;99.90
16038;DHT22;8123;50.906;6.172;2022-12-07T06:58:26;5.00;99.90
16038;DHT22;8123;50.906;6.172;2022-12-07T07:00:53;5.30;99.90
16038;DHT22;8123;50.906;6.172;2022-12-07T07:03:19;5.00;99.90
16038;DHT22;8123;50.906;6.172;2022-12-07T07:05:44;5.00;99.90
16038;DHT22;8123;50.906;6.172;2022-12-07T07:08:10;5.20;99.90
16038;DHT22;8123;50.906;6.172;2022-12-07T07:10:36;5.30;99.90
16038;DHT22;8123;50.906;6.172;2022-12-07T07:13:03;5.00;99.90
16038;DHT22;8123;50.906;6.172;2022-12-07T07:15:29;5.40;99.90
16038;DHT22;8123;50.906;6.172;2022-12-07T07:17:55;5.30;99.90
16038;DHT22;8123;50.906;6.172;2022-12-07T07:20:20;5.10;99.90
16038;DHT22;8123;50.906;6.172;2022-12-07T07:22:47;5.10;99.90
16038;DHT22;8123;50.906;6.172;2022-12-07T07:25:13;5.40;99.90
16038;DHT22;8123;50.906;6.172;2022-12-07T07:27:39;5.10;99.90
16038;DHT22;8123;50.906;6.172;2022-12-07T07:30:05;5.30;99.90
16038;DHT22;8123;50.906;6.172;2022-12-07T07:32:31;5.10;99.90
16038;DHT22;8123;50.906;6.172;2022-12-07T07:34:57;5.20;99.90
16038;DHT22;8123;50.906;6.172;2022-12-07T07:37:23;5.20;99.90
16038;DHT22;8123;50.906;6.172;2022-12-07T07:39:49;5.10;99.90
16038;DHT22;8123;50.906;6.172;2022-12-07T07:42:15;5.20;99.90
16038;DHT22;8123;50.906;6.172;2022-12-07T07:44:40;5.10;99.90
16038;DHT22;8123;50.906;6.172;2022-12-07T07:47:06;5.10;99.90
16038;DHT22;8123;50.906;6.172;2022-12-07T07:49:32;5.10;99.90
16038;DHT22;8123;50.906;6.172;2022-12-07T07:51:58;5.20;99.90
16038;DHT22;8123;50.906;6.172;2022-12-07T07:54:24;5.10;99.90
16038;DHT22;8123;50.906;6.172;2022-12-07T07:56:49;5.10;99.90
16038;DHT22;8123;50.906;6.172;2022-12-07T07:59:15;5.00;99.90
16038;DHT22;8123;50.906;6.172;2022-12-07T08:01:41;5.20;99.90
16038;DHT22;8123;50.906;6.172;2022-12-07T08:04:09;5.40;99.90
16038;DHT22;8123;50.906;6.172;2022-12-07T08:06:35;5.00;99.90
16038;DHT22;8123;50.906;6.172;2022-12-07T08:09:02;5.10;99.90
16038;DHT22;8123;50.906;6.172;2022-12-07T08:11:27;4.90;99.90
16038;DHT22;8123;50.906;6.172;2022-12-07T08:13:53;5.20;99.90
16038;DHT22;8123;50.906;6.172;2022-12-07T08:16:19;5.10;99.90
16038;DHT22;8123;50.906;6.172;2022-12-07T08:18:44;4.90;99.90
16038;DHT22;8123;50.906;6.172;2022-12-07T08:21:14;4.90;99.90
16038;DHT22;8123;50.906;6.172;2022-12-07T08:23:41;5.20;99.90
16038;DHT22;8123;50.906;6.172;2022-12-07T08:26:10;4.90;99.90
16038;DHT22;8123;50.906;6.172;2022-12-07T08:28:36;4.70;99.90
16038;DHT22;8123;50.906;6.172;2022-12-07T08:31:04;4.70;99.90
16038;DHT22;8123;50.906;6.172;2022-12-07T08:33:31;4.70;99.90
16038;DHT22;8123;50.906;6.172;2022-12-07T08:36:05;5.40;99.90
16038;DHT22;8123;50.906;6.172;2022-12-07T08:38:31;4.70;99.90
16038;DHT22;8123;50.906;6.172;2022-12-07T08:40:58;4.70;99.90
16038;DHT22;8123;50.906;6.172;2022-12-07T08:43:25;4.60;99.90
16038;DHT22;8123;50.906;6.172;2022-12-07T08:48:27;4.70;99.90
16038;DHT22;8123;50.906;6.172;2022-12-07T08:50:53;4.70;99.90
16038;DHT22;8123;50.906;6.172;2022-12-07T08:53:19;4.80;99.90
16038;DHT22;8123;50.906;6.172;2022-12-07T08:55:46;5.70;99.90
16038;DHT22;8123;50.906;6.172;2022-12-07T08:58:12;5.30;99.90
16038;DHT22;8123;50.906;6.172;2022-12-07T09:00:38;5.30;99.90
16038;DHT22;8123;50.906;6.172;2022-12-07T09:03:03;5.00;99.90
16038;DHT22;8123;50.906;6.172;2022-12-07T09:05:29;5.40;99.90
16038;DHT22;8123;50.906;6.172;2022-12-07T09:07:57;5.60;99.90
16038;DHT22;8123;50.906;6.172;2022-12-07T09:10:25;5.40;99.90
16038;DHT22;8123;50.906;6.172;2022-12-07T09:12:51;5.10;99.90
16038;DHT22;8123;50.906;6.172;2022-12-07T09:15:17;5.20;99.90
16038;DHT22;8123;50.906;6.172;2022-12-07T09:17:43;5.20;99.90
16038;DHT22;8123;50.906;6.172;2022-12-07T09:20:09;5.60;99.90
16038;DHT22;8123;50.906;6.172;2022-12-07T09:22:34;5.20;99.90
16038;DHT22;8123;50.906;6.172;2022-12-07T09:25:01;5.70;99.90
16038;DHT22;8123;50.906;6.172;2022-12-07T09:27:28;5.20;99.90
16038;DHT22;8123;50.906;6.172;2022-12-07T09:29:54;5.30;99.90
16038;DHT22;8123;50.906;6.172;2022-12-07T09:32:20;5.30;99.90
16038;DHT22;8123;50.906;6.172;2022-12-07T09:34:45;5.70;99.90
16038;DHT22;8123;50.906;6.172;2022-12-07T09:37:11;5.70;99.90
16038;DHT22;8123;50.906;6.172;2022-12-07T09:39:40;5.40;99.90
16038;DHT22;8123;50.906;6.172;2022-12-07T09:42:07;5.50;99.90
16038;DHT22;8123;50.906;6.172;2022-12-07T09:44:34;5.40;99.90
16038;DHT22;8123;50.906;6.172;2022-12-07T09:47:00;5.50;99.90
16038;DHT22;8123;50.906;6.172;2022-12-07T09:49:29;5.50;99.90
16038;DHT22;8123;50.906;6.172;2022-12-07T09:52:20;5.60;99.90
16038;DHT22;8123;50.906;6.172;2022-12-07T09:54:50;5.60;99.90
16038;DHT22;8123;50.906;6.172;2022-12-07T09:57:17;5.60;99.90
16038;DHT22;8123;50.906;6.172;2022-12-07T09:59:43;5.60;99.90
16038;DHT22;8123;50.906;6.172;2022-12-07T10:02:34;5.60;99.90
16038;DHT22;8123;50.906;6.172;2022-12-07T10:05:00;5.70;99.90
16038;DHT22;8123;50.906;6.172;2022-12-07T10:07:26;6.00;99.90
16038;DHT22;8123;50.906;6.172;2022-12-07T10:09:51;5.70;99.90
16038;DHT22;8123;50.906;6.172;2022-12-07T10:12:17;5.60;99.90
16038;DHT22;8123;50.906;6.172;2022-12-07T10:15:15;5.70;99.90
16038;DHT22;8123;50.906;6.172;2022-12-07T10:17:48;5.60;99.90
16038;DHT22;8123;50.906;6.172;2022-12-07T10:25:26;5.50;99.90
16038;DHT22;8123;50.906;6.172;2022-12-07T10:33:29;5.60;99.90
16038;DHT22;8123;50.906;6.172;2022-12-07T10:35:55;5.30;99.90
16038;DHT22;8123;50.906;6.172;2022-12-07T10:38:21;5.40;99.90
16038;DHT22;8123;50.906;6.172;2022-12-07T10:40:46;5.40;99.90
16038;DHT22;8123;50.906;6.172;2022-12-07T10:48:49;5.60;99.90
16038;DHT22;8123;50.906;6.172;2022-12-07T10:51:58;5.80;99.90
16038;DHT22;8123;50.906;6.172;2022-12-07T11:11:49;5.60;99.90
16038;DHT22;8123;50.906;6.172;2022-12-07T11:17:59;5.70;99.90
16038;DHT22;8123;50.906;6.172;2022-12-07T11:21:06;5.70;99.90
16038;DHT22;8123;50.906;6.172;2022-12-07T11:32:14;6.00;99.90
16038;DHT22;8123;50.906;6.172;2022-12-07T11:37:32;6.00;99.90
16038;DHT22;8123;50.906;6.172;2022-12-07T11:43:04;5.90;99.90
16038;DHT22;8123;50.906;6.172;2022-12-07T11:45:34;6.00;99.90
16038;DHT22;8123;50.906;6.172;2022-12-07T11:48:10;5.90;99.90
16038;DHT22;8123;50.906;6.172;2022-12-07T11:50:52;6.00;99.90
16038;DHT22;8123;50.906;6.172;2022-12-07T11:53:26;6.00;99.90
16038;DHT22;8123;50.906;6.172;2022-12-07T11:56:11;6.30;99.90
16038;DHT22;8123;50.906;6.172;2022-12-07T12:06:35;6.40;99.90
16038;DHT22;8123;50.906;6.172;2022-12-07T12:09:25;6.70;99.90
16038;DHT22;8123;50.906;6.172;2022-12-07T12:22:44;6.70;99.90
16038;DHT22;8123;50.906;6.172;2022-12-07T12:25:23;7.00;99.90
16038;DHT22;8123;50.906;6.172;2022-12-07T12:27:50;6.80;99.90
16038;DHT22;8123;50.906;6.172;2022-12-07T12:30:32;7.10;99.90
16038;DHT22;8123;50.906;6.172;2022-12-07T12:33:14;6.80;99.90
16038;DHT22;8123;50.906;6.172;2022-12-07T12:35:42;6.80;99.90
16038;DHT22;8123;50.906;6.172;2022-12-07T12:38:28;7.00;99.90
16038;DHT22;8123;50.906;6.172;2022-12-07T12:40:55;6.70;99.90
16038;DHT22;8123;50.906;6.172;2022-12-07T12:43:50;6.70;99.90
16038;DHT22;8123;50.906;6.172;2022-12-07T12:51:51;6.70;99.90
16038;DHT22;8123;50.906;6.172;2022-12-07T12:54:21;6.70;99.90
16038;DHT22;8123;50.906;6.172;2022-12-07T13:00:00;6.70;99.90
16038;DHT22;8123;50.906;6.172;2022-12-07T13:02:35;6.70;99.90
16038;DHT22;8123;50.906;6.172;2022-12-07T13:15:40;6.70;99.90
16038;DHT22;8123;50.906;6.172;2022-12-07T13:20:55;6.60;99.90
16038;DHT22;8123;50.906;6.172;2022-12-07T13:23:33;6.70;99.90
16038;DHT22;8123;50.906;6.172;2022-12-07T13:26:23;6.60;99.90
16038;DHT22;8123;50.906;6.172;2022-12-07T13:29:11;6.60;99.90
16038;DHT22;8123;50.906;6.172;2022-12-07T13:31:43;6.60;99.90
16038;DHT22;8123;50.906;6.172;2022-12-07T13:36:57;6.60;99.90
16038;DHT22;8123;50.906;6.172;2022-12-07T13:39:24;6.70;99.90
16038;DHT22;8123;50.906;6.172;2022-12-07T13:41:56;6.80;99.90
16038;DHT22;8123;50.906;6.172;2022-12-07T13:44:23;6.70;99.90
16038;DHT22;8123;50.906;6.172;2022-12-07T13:49:38;6.50;99.90
16038;DHT22;8123;50.906;6.172;2022-12-07T13:52:28;6.60;99.90
16038;DHT22;8123;50.906;6.172;2022-12-07T13:54:59;6.40;99.90
16038;DHT22;8123;50.906;6.172;2022-12-07T13:57:27;6.40;99.90
16038;DHT22;8123;50.906;6.172;2022-12-07T13:59:53;6.30;99.90
16038;DHT22;8123;50.906;6.172;2022-12-07T14:02:33;6.40;99.90
16038;DHT22;8123;50.906;6.172;2022-12-07T14:10:28;6.40;99.90
16038;DHT22;8123;50.906;6.172;2022-12-07T14:12:55;6.30;99.90
16038;DHT22;8123;50.906;6.172;2022-12-07T14:15:32;6.30;99.90
16038;DHT22;8123;50.906;6.172;2022-12-07T14:18:00;6.20;99.90
16038;DHT22;8123;50.906;6.172;2022-12-07T14:20:30;6.20;99.90
16038;DHT22;8123;50.906;6.172;2022-12-07T14:22:57;6.10;99.90
16038;DHT22;8123;50.906;6.172;2022-12-07T14:25:24;6.10;99.90
16038;DHT22;8123;50.906;6.172;2022-12-07T14:28:01;6.10;99.90
16038;DHT22;8123;50.906;6.172;2022-12-07T14:30:29;6.10;99.90
16038;DHT22;8123;50.906;6.172;2022-12-07T14:33:02;6.10;99.90
16038;DHT22;8123;50.906;6.172;2022-12-07T14:35:28;6.00;99.90
16038;DHT22;8123;50.906;6.172;2022-12-07T14:37:54;6.10;99.90
16038;DHT22;8123;50.906;6.172;2022-12-07T14:40:23;6.00;99.90
16038;DHT22;8123;50.906;6.172;2022-12-07T14:45:47;6.00;99.90
16038;DHT22;8123;50.906;6.172;2022-12-07T14:48:14;6.00;99.90
16038;DHT22;8123;50.906;6.172;2022-12-07T14:50:44;6.00;99.90
16038;DHT22;8123;50.906;6.172;2022-12-07T14:53:15;6.00;99.90
16038;DHT22;8123;50.906;6.172;2022-12-07T14:55:42;6.30;99.90
16038;DHT22;8123;50.906;6.172;2022-12-07T14:58:17;6.20;99.90
16038;DHT22;8123;50.906;6.172;2022-12-07T15:00:44;6.00;99.90
16038;DHT22;8123;50.906;6.172;2022-12-07T15:03:10;6.00;99.90
16038;DHT22;8123;50.906;6.172;2022-12-07T15:05:36;5.90;99.90
16038;DHT22;8123;50.906;6.172;2022-12-07T15:08:03;5.90;99.90
16038;DHT22;8123;50.906;6.172;2022-12-07T15:10:31;5.80;99.90
16038;DHT22;8123;50.906;6.172;2022-12-07T15:12:59;5.80;99.90
16038;DHT22;8123;50.906;6.172;2022-12-07T15:15:44;5.80;99.90
16038;DHT22;8123;50.906;6.172;2022-12-07T15:18:10;5.70;99.90
16038;DHT22;8123;50.906;6.172;2022-12-07T15:20:35;5.80;99.90
16038;DHT22;8123;50.906;6.172;2022-12-07T15:23:01;5.70;99.90
16038;DHT22;8123;50.906;6.172;2022-12-07T15:25:27;5.80;99.90
16038;DHT22;8123;50.906;6.172;2022-12-07T15:27:52;6.00;99.90
16038;DHT22;8123;50.906;6.172;2022-12-07T15:30:18;5.60;99.90
16038;DHT22;8123;50.906;6.172;2022-12-07T15:32:44;5.60;99.90
16038;DHT22;8123;50.906;6.172;2022-12-07T15:35:09;6.00;99.90
16038;DHT22;8123;50.906;6.172;2022-12-07T15:37:35;5.90;99.90
16038;DHT22;8123;50.906;6.172;2022-12-07T15:40:01;5.60;99.90
16038;DHT22;8123;50.906;6.172;2022-12-07T15:42:26;5.60;99.90
16038;DHT22;8123;50.906;6.172;2022-12-07T15:44:52;5.50;99.90
16038;DHT22;8123;50.906;6.172;2022-12-07T15:47:31;5.50;99.90
16038;DHT22;8123;50.906;6.172;2022-12-07T15:49:56;5.40;99.90
16038;DHT22;8123;50.906;6.172;2022-12-07T15:52:22;5.40;99.90
16038;DHT22;8123;50.906;6.172;2022-12-07T15:54:48;5.30;99.90
16038;DHT22;8123;50.906;6.172;2022-12-07T15:57:14;5.30;99.90
16038;DHT22;8123;50.906;6.172;2022-12-07T15:59:39;5.30;99.90
16038;DHT22;8123;50.906;6.172;2022-12-07T16:02:05;5.30;99.90
16038;DHT22;8123;50.906;6.172;2022-12-07T16:04:31;5.70;99.90
16038;DHT22;8123;50.906;6.172;2022-12-07T16:06:57;5.40;99.90
16038;DHT22;8123;50.906;6.172;2022-12-07T16:09:22;5.20;99.90
16038;DHT22;8123;50.906;6.172;2022-12-07T16:11:48;5.20;99.90
16038;DHT22;8123;50.906;6.172;2022-12-07T16:14:15;5.20;99.90
16038;DHT22;8123;50.906;6.172;2022-12-07T16:16:41;5.00;99.90
16038;DHT22;8123;50.906;6.172;2022-12-07T16:19:07;5.00;99.90
16038;DHT22;8123;50.906;6.172;2022-12-07T16:21:34;5.00;99.90
16038;DHT22;8123;50.906;6.172;2022-12-07T16:24:01;5.00;99.90
16038;DHT22;8123;50.906;6.172;2022-12-07T16:26:26;5.10;99.90
16038;DHT22;8123;50.906;6.172;2022-12-07T16:28:53;5.10;99.90
16038;DHT22;8123;50.906;6.172;2022-12-07T16:31:20;4.90;99.90
16038;DHT22;8123;50.906;6.172;2022-12-07T16:33:47;5.10;99.90
16038;DHT22;8123;50.906;6.172;2022-12-07T16:36:14;4.80;99.90
16038;DHT22;8123;50.906;6.172;2022-12-07T16:38:42;4.80;99.90
16038;DHT22;8123;50.906;6.172;2022-12-07T16:41:08;5.10;99.90
16038;DHT22;8123;50.906;6.172;2022-12-07T16:43:35;4.90;99.90
16038;DHT22;8123;50.906;6.172;2022-12-07T16:46:01;4.90;99.90
16038;DHT22;8123;50.906;6.172;2022-12-07T16:48:27;4.90;99.90
16038;DHT22;8123;50.906;6.172;2022-12-07T16:50:53;4.90;99.90
16038;DHT22;8123;50.906;6.172;2022-12-07T16:53:23;4.90;99.90
16038;DHT22;8123;50.906;6.172;2022-12-07T16:55:49;5.20;99.90
16038;DHT22;8123;50.906;6.172;2022-12-07T16:58:16;4.90;99.90
16038;DHT22;8123;50.906;6.172;2022-12-07T17:00:44;5.00;99.90
16038;DHT22;8123;50.906;6.172;2022-12-07T17:03:09;5.60;99.90
16038;DHT22;8123;50.906;6.172;2022-12-07T17:05:40;5.10;99.90
16038;DHT22;8123;50.906;6.172;2022-12-07T17:08:07;5.00;99.90
16038;DHT22;8123;50.906;6.172;2022-12-07T17:10:35;5.20;99.90
16038;DHT22;8123;50.906;6.172;2022-12-07T17:13:02;5.00;99.90
16038;DHT22;8123;50.906;6.172;2022-12-07T17:15:28;5.00;99.90
16038;DHT22;8123;50.906;6.172;2022-12-07T17:17:58;5.00;99.90
16038;DHT22;8123;50.906;6.172;2022-12-07T17:20:26;5.00;99.90
16038;DHT22;8123;50.906;6.172;2022-12-07T17:22:53;5.00;99.90
16038;DHT22;8123;50.906;6.172;2022-12-07T17:25:19;5.00;99.90
16038;DHT22;8123;50.906;6.172;2022-12-07T17:27:46;5.10;99.90
16038;DHT22;8123;50.906;6.172;2022-12-07T17:30:12;5.20;99.90
16038;DHT22;8123;50.906;6.172;2022-12-07T17:32:38;5.10;99.90
16038;DHT22;8123;50.906;6.172;2022-12-07T17:35:05;5.30;99.90
16038;DHT22;8123;50.906;6.172;2022-12-07T17:37:31;5.10;99.90
16038;DHT22;8123;50.906;6.172;2022-12-07T17:39:57;5.10;99.90
16038;DHT22;8123;50.906;6.172;2022-12-07T17:42:46;5.20;99.90
16038;DHT22;8123;50.906;6.172;2022-12-07T17:45:22;5.10;99.90
16038;DHT22;8123;50.906;6.172;2022-12-07T17:47:50;5.10;99.90
16038;DHT22;8123;50.906;6.172;2022-12-07T17:50:21;5.10;99.90
16038;DHT22;8123;50.906;6.172;2022-12-07T17:53:38;5.10;99.90
16038;DHT22;8123;50.906;6.172;2022-12-07T17:56:07;5.10;99.90
16038;DHT22;8123;50.906;6.172;2022-12-07T17:58:36;5.00;99.90
16038;DHT22;8123;50.906;6.172;2022-12-07T18:01:08;5.10;99.90
16038;DHT22;8123;50.906;6.172;2022-12-07T18:03:55;5.00;99.90
16038;DHT22;8123;50.906;6.172;2022-12-07T18:06:32;5.80;99.90
16038;DHT22;8123;50.906;6.172;2022-12-07T18:09:07;4.80;99.90
16038;DHT22;8123;50.906;6.172;2022-12-07T18:11:33;5.10;99.90
16038;DHT22;8123;50.906;6.172;2022-12-07T18:14:20;5.10;99.90
16038;DHT22;8123;50.906;6.172;2022-12-07T18:16:49;5.60;99.90
16038;DHT22;8123;50.906;6.172;2022-12-07T18:19:18;5.00;99.90
16038;DHT22;8123;50.906;6.172;2022-12-07T18:22:12;5.10;99.90
16038;DHT22;8123;50.906;6.172;2022-12-07T18:24:38;5.10;99.90
16038;DHT22;8123;50.906;6.172;2022-12-07T18:27:04;5.60;99.90
16038;DHT22;8123;50.906;6.172;2022-12-07T18:30:04;5.20;99.90